createdAt,value
2019-02-22T00:00:53.890Z,10.68
2019-02-22T00:02:40.979Z,11.20
2019-02-22T00:04:06.484Z,10.50
2019-02-22T00:05:32.187Z,10.75
2019-02-22T00:06:57.740Z,9.90
2019-02-22T00:08:23.202Z,11.80
2019-02-22T00:09:49.681Z,11.60
2019-02-22T00:11:15.514Z,10.08
2019-02-22T00:12:41.037Z,11.55
2019-02-22T00:14:06.677Z,9.83
2019-02-22T00:15:32.239Z,10.20
2019-02-22T00:16:57.766Z,10.08
2019-02-22T00:18:23.295Z,9.43
2019-02-22T00:19:49.004Z,11.33
2019-02-22T00:21:14.639Z,10.80
2019-02-22T00:22:40.143Z,11.88
2019-02-22T00:24:05.639Z,11.63
2019-02-22T00:25:31.143Z,10.72
2019-02-22T00:26:56.661Z,9.73
2019-02-22T00:28:22.170Z,10.75
2019-02-22T00:29:47.753Z,10.90
2019-02-22T00:31:13.308Z,12.07
2019-02-22T00:32:38.842Z,11.35
2019-02-22T00:34:04.353Z,11.30
2019-02-22T00:35:29.889Z,10.82
2019-02-22T00:36:55.680Z,11.63
2019-02-22T00:38:21.258Z,11.40
2019-02-22T00:39:46.784Z,10.35
2019-02-22T00:41:12.276Z,10.60
2019-02-22T00:42:37.934Z,11.43
2019-02-22T00:44:03.459Z,10.95
2019-02-22T00:45:29.042Z,13.62
2019-02-22T00:46:54.630Z,10.48
2019-02-22T00:48:20.242Z,10.48
2019-02-22T00:49:45.757Z,10.95
2019-02-22T00:51:11.286Z,10.23
2019-02-22T00:52:36.802Z,10.65
2019-02-22T00:54:02.382Z,12.00
2019-02-22T00:55:28.019Z,12.07
2019-02-22T00:56:53.535Z,11.80
2019-02-22T00:58:19.166Z,11.55
2019-02-22T00:59:44.708Z,10.82
2019-02-22T01:01:10.284Z,12.20
2019-02-22T01:02:35.781Z,12.28
2019-02-22T01:04:01.303Z,18.35
2019-02-22T01:05:26.902Z,19.75
2019-02-22T01:06:52.518Z,15.08
2019-02-22T01:08:18.071Z,13.10
2019-02-22T01:09:43.706Z,12.35
2019-02-22T01:11:09.186Z,12.88
2019-02-22T01:12:34.736Z,12.65
2019-02-22T01:14:00.216Z,12.70
2019-02-22T01:15:25.746Z,12.73
2019-02-22T01:16:51.262Z,11.80
2019-02-22T01:18:16.834Z,12.40
2019-02-22T01:19:42.537Z,10.55
2019-02-22T01:21:08.008Z,12.05
2019-02-22T01:22:33.533Z,10.90
2019-02-22T01:23:59.083Z,10.25
2019-02-22T01:25:24.700Z,11.10
2019-02-22T01:26:50.221Z,10.45
2019-02-22T01:28:15.778Z,11.10
2019-02-22T01:29:41.304Z,9.85
2019-02-22T01:31:06.937Z,11.28
2019-02-22T01:32:32.482Z,11.10
2019-02-22T01:33:58.004Z,10.58
2019-02-22T01:35:23.507Z,11.28
2019-02-22T01:36:49.034Z,10.13
2019-02-22T01:38:14.544Z,10.25
2019-02-22T01:39:40.042Z,9.45
2019-02-22T01:41:05.604Z,10.70
2019-02-22T01:42:31.113Z,9.83
2019-02-22T01:43:56.632Z,9.13
2019-02-22T01:45:22.142Z,10.38
2019-02-22T01:46:47.781Z,10.55
2019-02-22T01:48:13.385Z,10.95
2019-02-22T01:49:38.938Z,11.05
2019-02-22T01:51:04.414Z,10.93
2019-02-22T01:52:29.936Z,10.53
2019-02-22T01:53:55.455Z,10.85
2019-02-22T01:55:21.177Z,12.53
2019-02-22T01:56:46.806Z,11.10
2019-02-22T01:58:12.383Z,9.95
2019-02-22T01:59:37.906Z,9.98
2019-02-22T02:01:03.659Z,10.95
2019-02-22T02:02:29.206Z,11.00
2019-02-22T02:03:54.815Z,11.20
2019-02-22T02:05:20.461Z,10.15
2019-02-22T02:06:45.961Z,10.90
2019-02-22T02:08:11.742Z,10.38
2019-02-22T02:09:37.360Z,10.85
2019-02-22T02:11:02.937Z,10.88
2019-02-22T02:12:28.597Z,11.28
2019-02-22T02:13:54.168Z,11.10
2019-02-22T02:15:19.705Z,11.45
2019-02-22T02:16:45.329Z,11.08
2019-02-22T02:18:10.868Z,9.90
2019-02-22T02:19:36.413Z,11.00
2019-02-22T02:21:02.547Z,11.35
2019-02-22T02:22:28.025Z,11.15
2019-02-22T02:23:53.584Z,11.68
2019-02-22T02:25:19.341Z,11.18
2019-02-22T02:26:45.012Z,10.80
2019-02-22T02:28:10.723Z,11.43
2019-02-22T02:29:36.308Z,11.80
2019-02-22T02:31:01.889Z,10.82
2019-02-22T02:32:27.493Z,10.43
2019-02-22T02:33:53.150Z,11.60
2019-02-22T02:35:18.738Z,11.05
2019-02-22T02:36:44.273Z,11.38
2019-02-22T02:38:09.797Z,10.43
2019-02-22T02:39:35.342Z,10.43
2019-02-22T02:41:08.408Z,10.60
2019-02-22T02:42:28.197Z,10.93
2019-02-22T02:43:53.753Z,10.25
2019-02-22T02:45:19.443Z,11.15
2019-02-22T02:46:45.000Z,10.30
2019-02-22T02:48:10.518Z,10.60
2019-02-22T02:49:36.126Z,10.55
2019-02-22T02:51:01.631Z,10.93
2019-02-22T02:52:27.180Z,10.03
2019-02-22T02:53:52.614Z,10.70
2019-02-22T02:55:37.139Z,10.72
2019-02-22T02:57:02.684Z,10.53
2019-02-22T02:58:28.371Z,10.03
2019-02-22T02:59:53.940Z,10.20
2019-02-22T03:01:19.578Z,10.58
2019-02-22T03:02:45.042Z,10.20
2019-02-22T03:04:10.549Z,11.50
2019-02-22T03:05:49.137Z,10.60
2019-02-22T03:07:31.806Z,11.12
2019-02-22T03:08:57.326Z,11.45
2019-02-22T03:10:22.871Z,10.82
2019-02-22T03:11:48.392Z,11.03
2019-02-22T03:13:13.927Z,12.13
2019-02-22T03:14:39.449Z,10.80
2019-02-22T03:16:04.937Z,10.75
2019-02-22T03:17:30.578Z,10.58
2019-02-22T03:18:56.110Z,10.95
2019-02-22T03:20:21.655Z,11.45
2019-02-22T03:21:47.151Z,11.80
2019-02-22T03:23:12.814Z,10.20
2019-02-22T03:24:38.334Z,10.78
2019-02-22T03:26:03.862Z,8.88
2019-02-22T03:27:29.372Z,9.15
2019-02-22T03:28:54.825Z,8.93
2019-02-22T03:30:20.371Z,7.72
2019-02-22T03:31:45.855Z,8.45
2019-02-22T03:33:11.352Z,8.50
2019-02-22T03:34:36.985Z,7.80
2019-02-22T03:36:02.622Z,8.55
2019-02-22T03:37:28.124Z,7.60
2019-02-22T03:38:53.615Z,7.37
2019-02-22T03:40:19.243Z,8.10
2019-02-22T03:41:44.777Z,8.30
2019-02-22T03:43:10.293Z,8.40
2019-02-22T03:44:35.937Z,9.13
2019-02-22T03:46:01.512Z,9.38
2019-02-22T03:47:27.024Z,7.72
2019-02-22T03:48:52.550Z,9.10
2019-02-22T03:50:18.061Z,8.83
2019-02-22T03:51:43.625Z,8.80
2019-02-22T03:53:16.358Z,9.68
2019-02-22T03:54:41.945Z,9.48
2019-02-22T03:56:07.572Z,8.65
2019-02-22T03:57:33.104Z,8.63
2019-02-22T03:58:58.870Z,9.03
2019-02-22T04:00:24.722Z,8.28
2019-02-22T04:01:50.470Z,9.03
2019-02-22T04:03:16.188Z,8.63
2019-02-22T04:04:41.811Z,9.90
2019-02-22T04:06:07.381Z,8.55
2019-02-22T04:07:32.858Z,8.18
2019-02-22T04:08:58.384Z,9.53
2019-02-22T04:10:23.883Z,9.40
2019-02-22T04:11:49.515Z,9.43
2019-02-22T04:13:15.057Z,8.63
2019-02-22T04:14:40.598Z,8.95
2019-02-22T04:16:06.217Z,8.65
2019-02-22T04:17:31.830Z,8.43
2019-02-22T04:18:57.358Z,9.05
2019-02-22T04:20:24.002Z,9.75
2019-02-22T04:21:49.547Z,9.03
2019-02-22T04:23:15.071Z,9.73
2019-02-22T04:24:40.601Z,8.75
2019-02-22T04:26:06.224Z,10.00
2019-02-22T04:27:31.954Z,8.80
2019-02-22T04:28:57.472Z,9.13
2019-02-22T04:30:23.207Z,9.35
2019-02-22T04:31:48.744Z,9.78
2019-02-22T04:33:14.266Z,9.18
2019-02-22T04:34:39.803Z,9.30
2019-02-22T04:36:05.408Z,8.13
2019-02-22T04:37:30.935Z,9.30
2019-02-22T04:38:56.397Z,9.00
2019-02-22T04:40:22.148Z,9.20
2019-02-22T04:41:57.644Z,10.15
2019-02-22T04:43:14.983Z,10.20
2019-02-22T04:44:40.490Z,10.30
2019-02-22T04:46:05.978Z,9.63
2019-02-22T04:47:31.782Z,10.25
2019-02-22T04:48:57.277Z,9.63
2019-02-22T04:50:22.934Z,9.88
2019-02-22T04:51:48.453Z,8.83
2019-02-22T04:53:13.967Z,9.33
2019-02-22T04:54:39.445Z,9.55
2019-02-22T04:56:04.962Z,10.05
2019-02-22T04:57:30.518Z,8.98
2019-02-22T04:58:55.994Z,9.20
2019-02-22T05:00:21.521Z,10.13
2019-02-22T05:01:47.686Z,9.95
2019-02-22T05:03:13.200Z,9.85
2019-02-22T05:04:38.729Z,10.32
2019-02-22T05:06:04.239Z,9.60
2019-02-22T05:07:29.774Z,9.40
2019-02-22T05:08:55.305Z,10.75
2019-02-22T05:10:20.839Z,10.65
2019-02-22T05:11:46.507Z,10.93
2019-02-22T05:13:12.058Z,11.10
2019-02-22T05:14:37.578Z,11.53
2019-02-22T05:16:03.147Z,10.60
2019-02-22T05:17:28.693Z,9.18
2019-02-22T05:18:54.268Z,9.68
2019-02-22T05:20:20.379Z,10.35
2019-02-22T05:21:46.097Z,9.70
2019-02-22T05:23:11.636Z,10.45
2019-02-22T05:24:37.246Z,10.60
2019-02-22T05:26:03.259Z,10.38
2019-02-22T05:27:28.790Z,9.80
2019-02-22T05:28:54.381Z,10.45
2019-02-22T05:30:20.047Z,10.18
2019-02-22T05:31:45.650Z,10.90
2019-02-22T05:33:11.311Z,9.80
2019-02-22T05:34:37.166Z,9.80
2019-02-22T05:36:02.635Z,10.43
2019-02-22T05:37:28.194Z,10.18
2019-02-22T05:38:53.841Z,10.70
2019-02-22T05:40:19.368Z,10.50
2019-02-22T05:41:44.990Z,11.15
2019-02-22T05:43:10.527Z,10.05
2019-02-22T05:44:36.079Z,9.13
2019-02-22T05:46:01.679Z,10.05
2019-02-22T05:47:27.304Z,10.70
2019-02-22T05:48:52.863Z,10.48
2019-02-22T05:50:18.426Z,10.95
2019-02-22T05:51:43.951Z,11.55
2019-02-22T05:53:09.455Z,12.30
2019-02-22T05:54:34.964Z,12.35
2019-02-22T05:56:00.496Z,12.20
2019-02-22T05:57:26.050Z,11.35
2019-02-22T05:58:51.628Z,11.45
2019-02-22T06:00:17.773Z,13.10
2019-02-22T06:01:43.335Z,10.50
2019-02-22T06:03:08.929Z,12.28
2019-02-22T06:04:34.470Z,12.35
2019-02-22T06:05:59.932Z,12.10
2019-02-22T06:07:25.561Z,13.03
2019-02-22T06:08:51.131Z,11.83
2019-02-22T06:10:16.711Z,11.53
2019-02-22T06:11:42.392Z,11.90
2019-02-22T06:13:07.934Z,11.25
2019-02-22T06:14:33.507Z,10.20
2019-02-22T06:15:59.060Z,11.95
2019-02-22T06:17:24.578Z,11.63
2019-02-22T06:18:50.107Z,12.28
2019-02-22T06:20:15.856Z,12.00
2019-02-22T06:21:41.414Z,13.40
2019-02-22T06:23:06.946Z,11.57
2019-02-22T06:24:32.487Z,12.65
2019-02-22T06:25:57.981Z,11.80
2019-02-22T06:27:23.532Z,12.68
2019-02-22T06:28:49.063Z,12.15
2019-02-22T06:30:14.851Z,11.12
2019-02-22T06:31:40.377Z,11.60
2019-02-22T06:33:05.920Z,12.50
2019-02-22T06:34:31.438Z,11.55
2019-02-22T06:35:56.992Z,12.37
2019-02-22T06:37:22.551Z,12.10
2019-02-22T06:38:48.052Z,12.40
2019-02-22T06:40:13.814Z,12.30
2019-02-22T06:41:39.341Z,13.35
2019-02-22T06:43:04.995Z,13.05
2019-02-22T06:44:30.528Z,13.80
2019-02-22T06:45:56.209Z,11.68
2019-02-22T06:47:22.880Z,12.75
2019-02-22T06:48:48.584Z,13.05
2019-02-22T06:50:14.265Z,13.18
2019-02-22T06:51:39.779Z,14.20
2019-02-22T06:53:05.402Z,13.15
2019-02-22T06:54:30.944Z,12.28
2019-02-22T06:55:56.543Z,14.18
2019-02-22T06:57:22.125Z,13.53
2019-02-22T06:58:47.679Z,13.35
2019-02-22T07:00:13.538Z,14.18
2019-02-22T07:01:39.066Z,15.03
2019-02-22T07:03:04.681Z,14.25
2019-02-22T07:04:30.267Z,14.53
2019-02-22T07:05:56.333Z,13.22
2019-02-22T07:07:21.812Z,12.00
2019-02-22T07:08:47.282Z,13.35
2019-02-22T07:10:13.027Z,13.18
2019-02-22T07:11:44.410Z,13.18
2019-02-22T07:13:10.252Z,13.20
2019-02-22T07:14:36.059Z,13.38
2019-02-22T07:16:01.815Z,13.65
2019-02-22T07:17:27.451Z,12.75
2019-02-22T07:18:53.031Z,13.30
2019-02-22T07:20:18.701Z,15.38
2019-02-22T07:21:52.758Z,14.60
2019-02-22T07:23:11.446Z,13.75
2019-02-22T07:24:46.243Z,13.95
2019-02-22T07:26:11.846Z,15.63
2019-02-22T07:27:44.043Z,14.70
2019-02-22T07:29:14.720Z,14.63
2019-02-22T07:30:40.556Z,15.15
2019-02-22T07:32:06.578Z,14.45
2019-02-22T07:33:32.130Z,14.00
2019-02-22T07:34:57.770Z,15.05
2019-02-22T07:36:23.752Z,13.93
2019-02-22T07:37:52.123Z,14.15
2019-02-22T07:39:27.407Z,14.55
2019-02-22T07:40:44.957Z,14.50
2019-02-22T07:42:10.916Z,14.53
2019-02-22T07:43:38.249Z,14.20
2019-02-22T07:45:04.308Z,15.48
2019-02-22T07:46:30.639Z,15.88
2019-02-22T07:47:56.383Z,16.23
2019-02-22T07:49:27.000Z,15.20
2019-02-22T07:50:57.984Z,14.78
2019-02-22T07:52:19.957Z,14.95
2019-02-22T07:53:45.502Z,14.80
2019-02-22T07:55:11.757Z,15.85
2019-02-22T07:56:37.597Z,16.02
2019-02-22T07:58:03.585Z,15.10
2019-02-22T07:59:29.291Z,16.32
2019-02-22T08:00:56.091Z,14.38
2019-02-22T08:02:21.828Z,15.48
2019-02-22T08:03:47.453Z,16.20
2019-02-22T08:05:14.362Z,16.90
2019-02-22T08:06:43.041Z,17.00
2019-02-22T08:08:08.649Z,16.87
2019-02-22T08:09:36.606Z,17.50
2019-02-22T08:11:02.331Z,18.77
2019-02-22T08:12:27.879Z,17.17
2019-02-22T08:13:59.656Z,17.50
2019-02-22T08:15:28.712Z,18.48
2019-02-22T08:16:55.601Z,16.67
2019-02-22T08:18:21.394Z,17.05
2019-02-22T08:19:47.267Z,15.55
2019-02-22T08:21:13.186Z,15.88
2019-02-22T08:22:38.753Z,16.17
2019-02-22T08:24:04.321Z,14.40
2019-02-22T08:25:29.983Z,15.50
2019-02-22T08:26:55.470Z,15.88
2019-02-22T08:28:21.022Z,14.55
2019-02-22T08:29:46.616Z,15.28
2019-02-22T08:31:12.311Z,13.58
2019-02-22T08:32:38.018Z,15.15
2019-02-22T08:34:03.613Z,15.55
2019-02-22T08:35:29.118Z,14.28
2019-02-22T08:36:54.722Z,16.42
2019-02-22T08:38:20.382Z,16.30
2019-02-22T08:39:57.495Z,14.80
2019-02-22T08:41:13.070Z,14.80
2019-02-22T08:42:38.752Z,15.00
2019-02-22T08:44:04.378Z,16.48
2019-02-22T08:45:29.955Z,14.83
2019-02-22T08:46:55.497Z,14.30
2019-02-22T08:48:21.065Z,14.35
2019-02-22T08:49:46.602Z,16.30
2019-02-22T08:51:12.130Z,15.80
2019-02-22T08:52:37.678Z,14.35
2019-02-22T08:54:03.402Z,15.48
2019-02-22T08:55:28.992Z,15.53
2019-02-22T08:56:54.628Z,16.02
2019-02-22T08:58:20.249Z,15.30
2019-02-22T08:59:45.761Z,14.20
2019-02-22T09:01:11.695Z,13.68
2019-02-22T09:02:37.237Z,14.65
2019-02-22T09:04:02.792Z,15.25
2019-02-22T09:05:28.474Z,14.07
2019-02-22T09:06:54.177Z,14.90
2019-02-22T09:08:19.758Z,14.38
2019-02-22T09:09:45.328Z,14.50
2019-02-22T09:11:10.918Z,13.90
2019-02-22T09:12:36.524Z,14.55
2019-02-22T09:14:02.098Z,14.33
2019-02-22T09:15:27.776Z,14.33
2019-02-22T09:16:53.377Z,14.95
2019-02-22T09:18:18.956Z,14.47
2019-02-22T09:19:44.478Z,14.18
2019-02-22T09:21:09.993Z,14.43
2019-02-22T09:22:35.536Z,14.13
2019-02-22T09:24:01.082Z,14.95
2019-02-22T09:25:26.719Z,14.33
2019-02-22T09:26:52.231Z,14.40
2019-02-22T09:28:17.895Z,13.40
2019-02-22T09:29:43.472Z,15.03
2019-02-22T09:31:09.007Z,13.60
2019-02-22T09:32:34.591Z,15.03
2019-02-22T09:34:00.163Z,14.47
2019-02-22T09:35:25.829Z,13.70
2019-02-22T09:36:51.363Z,13.60
2019-02-22T09:38:16.915Z,13.35
2019-02-22T09:39:42.462Z,13.40
2019-02-22T09:41:07.938Z,14.63
2019-02-22T09:42:33.902Z,13.28
2019-02-22T09:43:59.461Z,13.60
2019-02-22T09:45:25.021Z,13.43
2019-02-22T09:46:50.560Z,14.75
2019-02-22T09:48:16.160Z,13.20
2019-02-22T09:49:41.819Z,13.60
2019-02-22T09:51:08.585Z,13.43
2019-02-22T09:52:34.231Z,13.75
2019-02-22T09:53:59.731Z,14.75
2019-02-22T09:55:25.247Z,13.80
2019-02-22T09:56:51.139Z,14.50
2019-02-22T09:58:16.666Z,15.03
2019-02-22T09:59:42.262Z,12.93
2019-02-22T10:01:07.825Z,13.22
2019-02-22T10:02:33.419Z,13.32
2019-02-22T10:03:59.222Z,13.93
2019-02-22T10:05:24.904Z,14.00
2019-02-22T10:06:50.678Z,14.03
2019-02-22T10:08:16.347Z,13.18
2019-02-22T10:09:41.922Z,14.18
2019-02-22T10:11:07.472Z,12.95
2019-02-22T10:12:33.082Z,12.25
2019-02-22T10:14:06.248Z,12.65
2019-02-22T10:15:26.063Z,12.30
2019-02-22T10:16:51.615Z,11.60
2019-02-22T10:18:17.130Z,12.88
2019-02-22T10:19:42.765Z,11.97
2019-02-22T10:21:08.342Z,13.10
2019-02-22T10:22:33.915Z,12.35
2019-02-22T10:23:59.581Z,11.68
2019-02-22T10:25:25.294Z,10.23
2019-02-22T10:26:50.838Z,10.40
2019-02-22T10:28:18.039Z,10.63
2019-02-22T10:29:43.867Z,10.85
2019-02-22T10:31:09.466Z,12.00
2019-02-22T10:32:35.189Z,13.03
2019-02-22T10:34:00.856Z,10.13
2019-02-22T10:35:26.405Z,10.85
2019-02-22T10:36:52.062Z,10.75
2019-02-22T10:38:17.620Z,11.30
2019-02-22T10:39:43.246Z,11.90
2019-02-22T10:41:08.792Z,12.00
2019-02-22T10:42:34.339Z,11.30
2019-02-22T10:43:59.799Z,12.00
2019-02-22T10:45:25.468Z,11.40
2019-02-22T10:46:51.006Z,11.85
2019-02-22T10:48:16.548Z,12.33
2019-02-22T10:49:42.052Z,11.78
2019-02-22T10:51:08.004Z,11.25
2019-02-22T10:52:33.559Z,10.75
2019-02-22T10:53:59.186Z,12.60
2019-02-22T10:55:24.819Z,12.68
2019-02-22T10:56:50.399Z,12.90
2019-02-22T10:58:15.928Z,12.18
2019-02-22T10:59:41.442Z,11.95
2019-02-22T11:01:07.255Z,13.30
2019-02-22T11:02:32.793Z,11.13
2019-02-22T11:03:58.332Z,11.50
2019-02-22T11:05:23.861Z,11.83
2019-02-22T11:06:49.455Z,12.20
2019-02-22T11:08:15.014Z,11.28
2019-02-22T11:09:40.682Z,11.18
2019-02-22T11:11:09.478Z,11.22
2019-02-22T11:12:35.038Z,12.23
2019-02-22T11:14:00.526Z,12.25
2019-02-22T11:15:26.061Z,11.95
2019-02-22T11:16:51.626Z,13.18
2019-02-22T11:18:17.136Z,13.20
2019-02-22T11:19:44.256Z,10.78
2019-02-22T11:21:09.846Z,11.95
2019-02-22T11:22:35.445Z,10.78
2019-02-22T11:24:00.955Z,10.82
2019-02-22T11:25:26.478Z,11.10
2019-02-22T11:26:52.028Z,11.78
2019-02-22T11:28:17.551Z,12.55
2019-02-22T11:29:44.587Z,11.25
2019-02-22T11:31:10.118Z,12.18
2019-02-22T11:32:35.779Z,12.63
2019-02-22T11:34:01.338Z,11.80
2019-02-22T11:35:26.936Z,12.28
2019-02-22T11:36:52.510Z,13.35
2019-02-22T11:38:18.030Z,13.10
2019-02-22T11:39:43.683Z,14.20
2019-02-22T11:41:09.225Z,13.22
2019-02-22T11:42:34.800Z,13.18
2019-02-22T11:44:00.290Z,13.53
2019-02-22T11:45:25.927Z,14.17
2019-02-22T11:46:51.480Z,13.38
2019-02-22T11:48:20.222Z,13.60
2019-02-22T11:49:45.855Z,12.80
2019-02-22T11:51:11.393Z,13.70
2019-02-22T11:52:36.995Z,12.90
2019-02-22T11:54:02.552Z,13.08
2019-02-22T11:55:28.186Z,12.90
2019-02-22T11:56:53.742Z,13.38
2019-02-22T11:58:19.365Z,12.18
2019-02-22T11:59:45.228Z,14.07
2019-02-22T12:01:11.331Z,12.63
2019-02-22T12:02:36.903Z,13.13
2019-02-22T12:04:02.435Z,12.33
2019-02-22T12:05:27.953Z,13.13
2019-02-22T12:06:53.628Z,13.40
2019-02-22T12:08:19.380Z,13.62
2019-02-22T12:09:44.950Z,12.35
2019-02-22T12:11:11.307Z,11.83
2019-02-22T12:12:36.869Z,13.45
2019-02-22T12:14:02.641Z,13.85
2019-02-22T12:15:28.115Z,13.32
2019-02-22T12:16:59.158Z,12.53
2019-02-22T12:18:24.710Z,12.68
2019-02-22T12:19:50.395Z,12.45
2019-02-22T12:21:16.019Z,13.53
2019-02-22T12:22:41.509Z,12.60
2019-02-22T12:24:07.119Z,14.07
2019-02-22T12:25:32.585Z,11.95
2019-02-22T12:26:58.216Z,13.03
2019-02-22T12:28:23.837Z,13.13
2019-02-22T12:29:49.420Z,14.60
2019-02-22T12:31:15.075Z,13.35
2019-02-22T12:32:40.767Z,13.30
2019-02-22T12:34:06.310Z,13.60
2019-02-22T12:35:31.869Z,14.45
2019-02-22T12:36:57.462Z,13.10
2019-02-22T12:38:22.991Z,12.40
2019-02-22T12:39:49.345Z,14.35
2019-02-22T12:41:14.970Z,14.75
2019-02-22T12:42:40.783Z,14.33
2019-02-22T12:44:06.315Z,12.43
2019-02-22T12:45:31.909Z,14.20
2019-02-22T12:46:57.472Z,14.43
2019-02-22T12:48:23.029Z,14.63
2019-02-22T12:49:48.653Z,14.53
2019-02-22T12:51:14.289Z,14.25
2019-02-22T12:52:39.787Z,14.90
2019-02-22T12:54:05.422Z,15.15
2019-02-22T12:55:30.982Z,14.07
2019-02-22T12:56:58.148Z,14.47
2019-02-22T12:58:23.715Z,14.10
2019-02-22T12:59:49.416Z,15.28
2019-02-22T13:01:14.942Z,13.70
2019-02-22T13:02:40.464Z,13.53
2019-02-22T13:04:06.243Z,15.23
2019-02-22T13:05:31.793Z,14.83
2019-02-22T13:06:57.352Z,15.28
2019-02-22T13:08:22.872Z,15.80
2019-02-22T13:09:48.454Z,14.68
2019-02-22T13:11:13.970Z,14.43
2019-02-22T13:12:39.691Z,14.90
2019-02-22T13:14:05.314Z,14.70
2019-02-22T13:15:30.895Z,14.23
2019-02-22T13:16:56.641Z,14.10
2019-02-22T13:18:22.171Z,12.93
2019-02-22T13:19:47.690Z,14.53
2019-02-22T13:21:13.457Z,14.18
2019-02-22T13:22:39.040Z,15.35
2019-02-22T13:24:04.667Z,13.85
2019-02-22T13:25:30.334Z,14.38
2019-02-22T13:26:55.971Z,15.10
2019-02-22T13:28:21.519Z,15.08
2019-02-22T13:29:47.167Z,13.32
2019-02-22T13:31:12.716Z,12.05
2019-02-22T13:32:38.519Z,14.15
2019-02-22T13:34:04.165Z,12.73
2019-02-22T13:35:29.888Z,12.60
2019-02-22T13:36:57.310Z,12.50
2019-02-22T13:38:22.885Z,14.13
2019-02-22T13:39:48.435Z,13.40
2019-02-22T13:41:14.040Z,14.45
2019-02-22T13:42:39.599Z,14.43
2019-02-22T13:44:05.224Z,13.85
2019-02-22T13:45:30.942Z,17.52
2019-02-22T13:46:56.655Z,13.80
2019-02-22T13:48:22.329Z,15.10
2019-02-22T13:49:48.050Z,17.02
2019-02-22T13:51:13.638Z,15.78
2019-02-22T13:52:39.324Z,15.08
2019-02-22T13:54:04.957Z,15.32
2019-02-22T13:55:30.563Z,14.80
2019-02-22T13:56:56.412Z,13.50
2019-02-22T13:58:22.007Z,13.85
2019-02-22T13:59:48.173Z,14.00
2019-02-22T14:01:14.068Z,14.00
2019-02-22T14:02:39.592Z,14.07
2019-02-22T14:04:05.251Z,14.00
2019-02-22T14:05:30.777Z,13.55
2019-02-22T14:06:56.348Z,14.68
2019-02-22T14:08:21.984Z,16.73
2019-02-22T14:09:47.562Z,15.63
2019-02-22T14:11:13.205Z,15.72
2019-02-22T14:12:38.726Z,14.25
2019-02-22T14:14:04.467Z,14.80
2019-02-22T14:15:37.529Z,12.93
2019-02-22T14:16:57.244Z,14.85
2019-02-22T14:18:23.263Z,14.80
2019-02-22T14:19:49.077Z,14.47
2019-02-22T14:21:14.760Z,13.13
2019-02-22T14:22:40.518Z,13.85
2019-02-22T14:24:06.074Z,12.75
2019-02-22T14:25:31.625Z,14.10
2019-02-22T14:26:57.165Z,12.80
2019-02-22T14:28:23.481Z,13.90
2019-02-22T14:29:49.059Z,12.63
2019-02-22T14:31:14.855Z,14.15
2019-02-22T14:32:40.622Z,15.85
2019-02-22T14:34:06.232Z,15.03
2019-02-22T14:35:31.788Z,13.40
2019-02-22T14:36:57.644Z,14.70
2019-02-22T14:38:23.236Z,13.20
2019-02-22T14:40:00.097Z,15.13
2019-02-22T14:41:22.642Z,12.68
2019-02-22T14:42:48.590Z,13.60
2019-02-22T14:44:14.266Z,14.65
2019-02-22T14:45:48.792Z,13.35
2019-02-22T14:47:07.538Z,13.00
2019-02-22T14:48:33.182Z,13.30
2019-02-22T14:49:58.893Z,14.00
2019-02-22T14:51:24.654Z,14.98
2019-02-22T14:52:50.244Z,14.30
2019-02-22T14:54:15.929Z,13.00
2019-02-22T14:55:41.492Z,13.18
2019-02-22T14:57:07.247Z,13.50
2019-02-22T14:58:32.927Z,13.55
2019-02-22T14:59:58.410Z,12.78
2019-02-22T15:01:23.954Z,13.20
2019-02-22T15:02:49.739Z,12.65
2019-02-22T15:04:16.449Z,12.00
2019-02-22T15:05:42.394Z,13.45
2019-02-22T15:07:07.980Z,12.45
2019-02-22T15:08:33.794Z,11.53
2019-02-22T15:10:04.215Z,11.53
2019-02-22T15:11:31.257Z,13.75
2019-02-22T15:12:56.921Z,13.45
2019-02-22T15:14:22.425Z,13.53
2019-02-22T15:16:05.717Z,11.95
2019-02-22T15:17:56.005Z,13.15
2019-02-22T15:19:22.285Z,12.25
2019-02-22T15:20:48.007Z,12.85
2019-02-22T15:22:13.527Z,12.33
2019-02-22T15:23:39.200Z,13.32
2019-02-22T15:25:05.256Z,13.10
2019-02-22T15:26:30.766Z,11.88
2019-02-22T15:27:56.718Z,13.20
2019-02-22T15:29:22.558Z,14.05
2019-02-22T15:30:48.343Z,13.62
2019-02-22T15:32:14.024Z,14.75
2019-02-22T15:33:39.557Z,14.20
2019-02-22T15:35:05.556Z,14.58
2019-02-22T15:36:31.102Z,12.88
2019-02-22T15:37:56.652Z,11.80
2019-02-22T15:39:22.220Z,14.58
2019-02-22T15:40:47.730Z,14.23
2019-02-22T15:42:13.232Z,14.20
2019-02-22T15:43:38.799Z,15.03
2019-02-22T15:45:04.445Z,13.30
2019-02-22T15:46:30.075Z,13.32
2019-02-22T15:47:55.648Z,14.15
2019-02-22T15:49:21.367Z,13.98
2019-02-22T15:50:46.923Z,14.60
2019-02-22T15:52:12.439Z,13.95
2019-02-22T15:53:38.238Z,14.55
2019-02-22T15:55:03.926Z,15.23
2019-02-22T15:56:29.570Z,15.60
2019-02-22T15:57:55.305Z,14.50
2019-02-22T15:59:21.262Z,14.03
2019-02-22T16:00:46.918Z,14.35
2019-02-22T16:02:12.476Z,13.20
2019-02-22T16:03:54.503Z,15.72
2019-02-22T16:05:26.781Z,14.45
2019-02-22T16:06:52.522Z,14.18
2019-02-22T16:08:18.178Z,12.00
2019-02-22T16:09:43.727Z,14.78
2019-02-22T16:11:09.352Z,14.73
2019-02-22T16:12:35.015Z,14.38
2019-02-22T16:14:00.615Z,14.45
2019-02-22T16:15:26.282Z,12.93
2019-02-22T16:16:52.347Z,15.20
2019-02-22T16:18:17.919Z,14.28
2019-02-22T16:19:43.460Z,13.32
2019-02-22T16:21:09.231Z,13.28
2019-02-22T16:22:34.766Z,11.80
2019-02-22T16:24:00.266Z,14.45
2019-02-22T16:25:25.943Z,13.30
2019-02-22T16:27:02.288Z,14.55
2019-02-22T16:28:27.907Z,15.55
2019-02-22T16:29:53.579Z,14.65
2019-02-22T16:31:19.303Z,14.53
2019-02-22T16:32:45.025Z,13.43
2019-02-22T16:34:10.594Z,12.60
2019-02-22T16:35:36.594Z,13.78
2019-02-22T16:37:02.395Z,14.75
2019-02-22T16:38:27.940Z,15.93
2019-02-22T16:39:53.622Z,17.32
2019-02-22T16:41:19.351Z,14.50
2019-02-22T16:42:44.894Z,14.55
2019-02-22T16:44:10.466Z,13.85
2019-02-22T16:45:36.257Z,15.05
2019-02-22T16:47:01.896Z,13.75
2019-02-22T16:48:27.377Z,12.75
2019-02-22T16:49:52.996Z,15.75
2019-02-22T16:51:18.512Z,14.83
2019-02-22T16:52:45.330Z,14.30
2019-02-22T16:54:11.075Z,13.38
2019-02-22T16:55:36.735Z,13.75
2019-02-22T16:57:02.328Z,13.50
2019-02-22T16:58:27.925Z,13.62
2019-02-22T16:59:53.486Z,14.30
2019-02-22T17:01:19.144Z,14.33
2019-02-22T17:02:45.450Z,13.25
2019-02-22T17:04:10.963Z,13.65
2019-02-22T17:05:36.647Z,14.47
2019-02-22T17:07:02.214Z,15.65
2019-02-22T17:08:27.910Z,15.55
2019-02-22T17:09:53.536Z,13.78
2019-02-22T17:11:19.179Z,14.80
2019-02-22T17:12:44.858Z,14.18
2019-02-22T17:14:10.398Z,13.05
2019-02-22T17:15:36.065Z,13.85
2019-02-22T17:17:04.316Z,15.23
2019-02-22T17:18:29.890Z,15.28
2019-02-22T17:19:55.549Z,13.80
2019-02-22T17:21:21.225Z,13.48
2019-02-22T17:22:47.129Z,14.93
2019-02-22T17:24:12.873Z,13.00
2019-02-22T17:25:38.547Z,17.05
2019-02-22T17:27:04.302Z,15.85
2019-02-22T17:28:30.217Z,15.83
2019-02-22T17:29:55.802Z,16.60
2019-02-22T17:31:21.555Z,12.90
2019-02-22T17:32:47.295Z,13.55
2019-02-22T17:34:12.982Z,14.50
2019-02-22T17:35:38.516Z,14.83
2019-02-22T17:37:04.168Z,14.05
2019-02-22T17:38:29.953Z,12.30
2019-02-22T17:39:55.618Z,13.78
2019-02-22T17:41:21.727Z,14.55
2019-02-22T17:42:47.375Z,15.90
2019-02-22T17:44:12.915Z,14.25
2019-02-22T17:45:38.714Z,14.55
2019-02-22T17:47:06.503Z,15.58
2019-02-22T17:48:31.601Z,17.10
2019-02-22T17:49:57.366Z,15.50
2019-02-22T17:51:23.162Z,15.05
2019-02-22T17:52:48.889Z,16.48
2019-02-22T17:54:14.406Z,15.35
2019-02-22T17:55:40.519Z,16.65
2019-02-22T17:57:06.214Z,15.45
2019-02-22T17:58:33.624Z,15.83
2019-02-22T17:59:59.552Z,15.48
2019-02-22T18:01:25.317Z,15.20
2019-02-22T18:02:50.859Z,17.02
2019-02-22T18:04:16.661Z,19.00
2019-02-22T18:05:42.193Z,21.82
2019-02-22T18:07:07.758Z,30.02
2019-02-22T18:08:33.276Z,38.70
2019-02-22T18:09:58.839Z,33.28
2019-02-22T18:11:24.753Z,34.20
2019-02-22T18:12:50.319Z,39.90
2019-02-22T18:14:15.840Z,37.63
2019-02-22T18:15:41.355Z,29.00
2019-02-22T18:17:08.762Z,23.60
2019-02-22T18:18:34.231Z,24.85
2019-02-22T18:20:01.719Z,21.80
2019-02-22T18:21:27.398Z,20.40
2019-02-22T18:22:53.120Z,21.17
2019-02-22T18:24:18.784Z,22.00
2019-02-22T18:25:44.295Z,19.45
2019-02-22T18:27:09.873Z,19.25
2019-02-22T18:28:35.415Z,17.57
2019-02-22T18:30:01.010Z,18.02
2019-02-22T18:31:26.515Z,17.67